Time;durP1;ratioP1;P1;durP2;ratioP2;P2;SDS_P1;SDS_P2;PMS_P1;PMS_P2;Temp;Humidity;BMP_temperature;BMP_pressure;BME280_temperature;BME280_humidity;BME280_pressure;Samples;Min_cycle;Max_cycle;Signal;HPM_P1;HPM_P2
2021/05/10 00:01:23;;;;;;;3.35;0.93;;;20.90;57.10;;;;;;2551027;53;20932;-72
2021/05/10 00:03:49;;;;;;;1.90;0.80;;;20.90;57.10;;;;;;2579324;53;21009;-72
2021/05/10 00:06:16;;;;;;;1.77;0.73;;;20.90;57.00;;;;;;2592657;52;21006;-73
2021/05/10 00:08:43;;;;;;;2.10;0.95;;;20.80;56.90;;;;;;2366530;54;20937;-73
2021/05/10 00:11:10;;;;;;;1.05;0.60;;;20.80;57.00;;;;;;2366079;54;20917;-72
2021/05/10 00:13:40;;;;;;;1.60;0.70;;;20.70;57.10;;;;;;2366542;54;21380;-74
2021/05/10 00:16:06;;;;;;;1.40;0.70;;;20.70;57.10;;;;;;2365733;54;21043;-71
2021/05/10 00:18:32;;;;;;;1.90;0.80;;;20.70;57.10;;;;;;2365271;53;21009;-72
2021/05/10 00:20:58;;;;;;;2.15;0.70;;;20.60;57.20;;;;;;2588883;53;21537;-72
2021/05/10 00:23:24;;;;;;;1.35;0.62;;;20.50;57.20;;;;;;2346392;53;20989;-71
2021/05/10 00:25:51;;;;;;;1.77;0.80;;;20.50;57.20;;;;;;2357623;54;20937;-70
2021/05/10 00:28:18;;;;;;;1.30;0.60;;;20.50;57.30;;;;;;2365796;54;20937;-72
2021/05/10 00:30:46;;;;;;;2.35;0.60;;;20.40;57.20;;;;;;2365978;54;20980;-72
2021/05/10 00:33:13;;;;;;;2.22;0.68;;;20.40;57.20;;;;;;2366131;53;21784;-72
2021/05/10 00:35:39;;;;;;;2.20;0.70;;;20.30;57.20;;;;;;2610649;52;20968;-73
2021/05/10 00:38:06;;;;;;;1.83;0.75;;;20.30;57.30;;;;;;2338380;53;21013;-73
2021/05/10 00:40:33;;;;;;;2.80;0.80;;;20.30;57.30;;;;;;2594357;53;21021;-72
2021/05/10 00:43:00;;;;;;;2.95;0.68;;;20.20;57.40;;;;;;2365268;53;20921;-73
2021/05/10 00:45:26;;;;;;;2.00;0.75;;;20.20;57.40;;;;;;2617556;52;21052;-71
2021/05/10 00:47:53;;;;;;;1.37;0.60;;;20.10;57.40;;;;;;2365831;54;20964;-72
2021/05/10 00:50:22;;;;;;;1.58;0.80;;;20.10;57.40;;;;;;2396920;52;21504;-71
2021/05/10 00:52:49;;;;;;;1.45;0.65;;;20.10;57.50;;;;;;2359837;53;20992;-71
2021/05/10 00:55:15;;;;;;;2.12;0.70;;;20.10;57.40;;;;;;2342366;53;21567;-72
2021/05/10 00:57:48;;;;;;;1.98;0.80;;;20.10;57.50;;;;;;2359382;53;21009;-71
2021/05/10 01:00:15;;;;;;;1.87;0.80;;;20.10;57.30;;;;;;2598488;52;21605;-71
2021/05/10 01:02:42;;;;;;;2.40;0.90;;;20.20;57.30;;;;;;2617516;52;21016;-73
2021/05/10 01:05:09;;;;;;;2.03;0.80;;;20.30;57.40;;;;;;2366431;54;20992;-71
2021/05/10 01:07:35;;;;;;;2.17;0.68;;;20.40;57.50;;;;;;2366177;54;21008;-74
2021/05/10 01:10:06;;;;;;;1.62;0.70;;;20.50;57.40;;;;;;2365918;54;20977;-71
2021/05/10 01:12:32;;;;;;;1.87;0.80;;;20.60;57.30;;;;;;2353857;53;20937;-72
2021/05/10 01:14:58;;;;;;;1.67;0.75;;;20.70;57.20;;;;;;2354929;53;20945;-73
2021/05/10 01:17:24;;;;;;;1.10;0.50;;;20.90;57.20;;;;;;2434014;52;21085;-73
2021/05/10 01:19:51;;;;;;;1.75;0.90;;;21.00;57.00;;;;;;2339312;53;20921;-72
2021/05/10 01:22:20;;;;;;;1.50;0.70;;;21.10;56.90;;;;;;2334945;54;21005;-72
2021/05/10 01:24:46;;;;;;;2.00;0.80;;;21.10;56.70;;;;;;2352137;53;20905;-74
2021/05/10 01:27:12;;;;;;;1.80;0.70;;;21.20;56.60;;;;;;2366063;54;20924;-72
2021/05/10 01:29:39;;;;;;;2.17;0.90;;;21.30;56.50;;;;;;2366204;54;20913;-73
2021/05/10 01:32:06;;;;;;;1.98;0.70;;;21.40;56.30;;;;;;2366133;54;20956;-73
2021/05/10 01:34:32;;;;;;;1.80;0.95;;;21.50;56.20;;;;;;2617587;52;21421;-73
2021/05/10 01:36:59;;;;;;;2.08;0.70;;;21.50;56.00;;;;;;2366181;54;20984;-72
2021/05/10 01:39:25;;;;;;;2.55;0.77;;;21.50;55.90;;;;;;2610499;52;20982;-74
2021/05/10 01:41:51;;;;;;;1.55;0.70;;;21.50;55.30;;;;;;2343385;53;21025;-72
2021/05/10 01:44:17;;;;;;;1.87;0.88;;;21.50;55.40;;;;;;2585028;52;20929;-73
2021/05/10 01:46:44;;;;;;;1.70;0.80;;;21.50;55.40;;;;;;2478372;52;20972;-73
2021/05/10 01:49:10;;;;;;;2.05;0.80;;;21.50;55.30;;;;;;2617803;52;21004;-73
2021/05/10 01:51:37;;;;;;;1.90;0.77;;;21.50;55.30;;;;;;2366442;54;20936;-73
2021/05/10 01:54:04;;;;;;;1.50;0.70;;;21.50;55.20;;;;;;2366228;54;20983;-73
2021/05/10 01:56:30;;;;;;;2.40;0.75;;;21.50;55.20;;;;;;2590995;52;20962;-72
2021/05/10 01:58:57;;;;;;;2.08;0.70;;;21.50;55.20;;;;;;2617836;52;20985;-72
2021/05/10 02:01:23;;;;;;;3.08;0.60;;;21.40;55.00;;;;;;2356498;53;20957;-71
2021/05/10 02:03:49;;;;;;;2.45;0.88;;;21.30;55.00;;;;;;2585584;52;21033;-71
2021/05/10 02:06:16;;;;;;;2.20;1.00;;;21.30;54.90;;;;;;2343915;53;20957;-72
2021/05/10 02:08:44;;;;;;;1.60;0.70;;;21.20;55.40;;;;;;2350153;53;20996;-73
2021/05/10 02:11:10;;;;;;;1.50;0.70;;;21.10;54.70;;;;;;2366290;54;20953;-70
2021/05/10 02:13:36;;;;;;;1.33;0.65;;;21.10;54.80;;;;;;2366240;54;20996;-71
2021/05/10 02:16:03;;;;;;;1.75;0.80;;;21.00;54.70;;;;;;2366250;54;20972;-73
2021/05/10 02:18:30;;;;;;;1.37;0.65;;;20.90;54.80;;;;;;2368481;54;20949;-73
2021/05/10 02:20:57;;;;;;;2.37;0.80;;;20.80;55.40;;;;;;2340889;53;20981;-73
2021/05/10 02:23:25;;;;;;;1.33;0.70;;;20.80;55.00;;;;;;2410228;53;21028;-72
2021/05/10 02:25:59;;;;;;;1.05;0.60;;;20.70;55.00;;;;;;2364626;53;20996;-72
2021/05/10 02:28:26;;;;;;;1.08;0.60;;;20.60;54.70;;;;;;2326857;54;20949;-73
2021/05/10 02:30:54;;;;;;;1.70;0.80;;;20.60;55.20;;;;;;2366341;54;20944;-74
2021/05/10 02:33:31;;;;;;;2.22;0.85;;;20.50;55.30;;;;;;2617138;52;20893;-72
2021/05/10 02:35:57;;;;;;;1.20;0.57;;;20.40;55.00;;;;;;2536495;53;20992;-72
2021/05/10 02:38:24;;;;;;;2.20;0.95;;;20.40;55.50;;;;;;2357521;53;21778;-72
2021/05/10 02:40:51;;;;;;;4.28;1.70;;;20.30;55.50;;;;;;2396878;52;21005;-73
2021/05/10 02:43:19;;;;;;;2.25;1.30;;;20.20;55.60;;;;;;2368710;53;21105;-71
2021/05/10 02:45:45;;;;;;;2.40;1.10;;;20.20;55.60;;;;;;2442810;53;20949;-71
2021/05/10 02:48:12;;;;;;;2.08;0.98;;;20.20;55.90;;;;;;2496105;52;21008;-72
2021/05/10 02:50:40;;;;;;;1.67;0.82;;;20.10;55.90;;;;;;2342420;53;21012;-73
2021/05/10 02:53:06;;;;;;;2.20;0.70;;;20.10;55.90;;;;;;2507841;52;21786;-73
2021/05/10 02:55:32;;;;;;;3.87;0.90;;;20.10;56.10;;;;;;2366074;54;20925;-73
2021/05/10 02:57:59;;;;;;;2.25;0.88;;;20.10;56.10;;;;;;2398546;52;20925;-73
2021/05/10 03:00:26;;;;;;;1.67;1.05;;;20.10;56.20;;;;;;2598989;52;20945;-72
2021/05/10 03:02:52;;;;;;;1.98;0.80;;;20.10;56.20;;;;;;2362854;53;22325;-72
2021/05/10 03:05:20;;;;;;;1.58;0.70;;;20.10;56.40;;;;;;2342706;53;20944;-72
2021/05/10 03:07:46;;;;;;;2.22;0.80;;;20.10;56.40;;;;;;2363098;53;21741;-71
2021/05/10 03:10:13;;;;;;;1.48;0.80;;;20.10;56.50;;;;;;2366107;54;20932;-71
2021/05/10 03:12:41;;;;;;;2.67;1.27;;;20.20;56.70;;;;;;2342084;53;20940;-72
2021/05/10 03:15:11;;;;;;;2.40;0.95;;;20.20;56.80;;;;;;2366425;54;20913;-71
2021/05/10 03:17:39;;;;;;;1.90;0.90;;;20.20;56.60;;;;;;2366366;54;20965;-71
2021/05/10 03:20:06;;;;;;;4.37;0.90;;;20.20;56.80;;;;;;2366528;54;21068;-71
2021/05/10 03:22:32;;;;;;;2.05;0.80;;;20.20;56.90;;;;;;2366203;54;20997;-73
2021/05/10 03:24:59;;;;;;;1.77;0.80;;;20.20;56.90;;;;;;2503457;53;21843;-74
2021/05/10 03:27:26;;;;;;;1.90;0.90;;;20.20;56.90;;;;;;2617136;52;20913;-71
2021/05/10 03:29:56;;;;;;;2.10;0.93;;;20.20;57.00;;;;;;2367659;54;20992;-73
2021/05/10 03:32:23;;;;;;;1.98;0.90;;;20.20;57.10;;;;;;2586840;53;21026;-73
2021/05/10 03:34:49;;;;;;;2.33;0.80;;;20.20;57.20;;;;;;2423593;53;20917;-71
2021/05/10 03:37:16;;;;;;;2.12;0.90;;;20.20;57.10;;;;;;2355723;53;20933;-73
2021/05/10 03:39:43;;;;;;;2.83;0.93;;;20.20;57.10;;;;;;2369037;54;20909;-73
2021/05/10 03:42:09;;;;;;;1.80;0.73;;;20.20;57.10;;;;;;2528358;52;21290;-72
2021/05/10 03:44:35;;;;;;;3.47;1.60;;;20.30;57.00;;;;;;2337504;54;21232;-72
2021/05/10 03:47:02;;;;;;;4.60;1.80;;;20.30;56.90;;;;;;2617962;52;20984;-73
2021/05/10 03:49:29;;;;;;;3.05;1.20;;;20.40;57.00;;;;;;2617717;52;20977;-73
2021/05/10 03:51:55;;;;;;;2.85;1.10;;;20.40;57.60;;;;;;2366075;54;20941;-73
2021/05/10 03:54:22;;;;;;;2.90;1.10;;;20.50;57.10;;;;;;2367695;54;20924;-72
2021/05/10 03:56:48;;;;;;;2.90;0.85;;;20.50;56.90;;;;;;2341645;53;20912;-72
2021/05/10 03:59:15;;;;;;;2.20;0.93;;;20.60;57.00;;;;;;2365643;54;20905;-73
2021/05/10 04:01:42;;;;;;;2.10;0.80;;;20.70;57.10;;;;;;2365845;54;20945;-73
2021/05/10 04:04:25;;;;;;;1.55;0.70;;;20.70;57.00;;;;;;2617407;52;20905;-73
2021/05/10 04:07:20;;;;;;;2.25;0.90;;;20.70;56.80;;;;;;2366276;54;20936;-72
2021/05/10 04:15:24;;;;;;;2.20;0.98;;;20.90;56.80;;;;;;2366194;54;20992;-72
2021/05/10 04:17:52;;;;;;;2.97;1.25;;;20.90;56.70;;;;;;2366251;54;21008;-73
2021/05/10 04:20:18;;;;;;;1.55;0.70;;;21.00;56.70;;;;;;2591424;52;21012;-73
2021/05/10 04:22:45;;;;;;;1.55;0.70;;;21.00;56.60;;;;;;2414077;52;20953;-73
2021/05/10 04:25:13;;;;;;;2.40;0.90;;;21.00;56.60;;;;;;2365960;54;21601;-71
2021/05/10 04:27:40;;;;;;;3.12;0.85;;;21.10;56.50;;;;;;2365790;54;21016;-71
2021/05/10 04:30:06;;;;;;;1.98;0.82;;;21.10;56.50;;;;;;2343689;53;20957;-72
2021/05/10 04:32:36;;;;;;;1.83;0.70;;;21.10;56.50;;;;;;2366377;54;20932;-72
2021/05/10 04:35:04;;;;;;;1.95;0.80;;;21.10;56.40;;;;;;2342956;53;20985;-71
2021/05/10 04:37:31;;;;;;;1.62;0.70;;;21.10;56.50;;;;;;2365889;54;20925;-72
2021/05/10 04:39:57;;;;;;;2.15;0.90;;;21.20;56.60;;;;;;2447247;52;20940;-73
2021/05/10 04:42:24;;;;;;;1.55;0.60;;;21.20;56.80;;;;;;2366342;54;20952;-73
2021/05/10 04:44:50;;;;;;;1.83;0.82;;;21.20;56.80;;;;;;2354617;53;21009;-71
2021/05/10 04:47:17;;;;;;;1.35;0.60;;;21.20;56.70;;;;;;2349738;54;21013;-73
2021/05/10 04:49:44;;;;;;;1.45;0.65;;;21.20;56.80;;;;;;2337991;53;21584;-73
2021/05/10 04:52:10;;;;;;;1.60;0.80;;;21.20;56.70;;;;;;2358187;53;21549;-72
2021/05/10 04:54:36;;;;;;;1.77;0.77;;;21.20;56.80;;;;;;2366215;54;20925;-73
2021/05/10 04:57:02;;;;;;;3.17;0.90;;;21.20;56.70;;;;;;2616954;52;20949;-71
2021/05/10 04:59:29;;;;;;;3.62;1.10;;;21.20;56.60;;;;;;2617515;52;20932;-71
2021/05/10 05:01:55;;;;;;;2.65;1.00;;;21.10;56.40;;;;;;2366285;54;20992;-71
2021/05/10 05:04:21;;;;;;;3.85;1.10;;;21.10;56.50;;;;;;2342231;53;21021;-72
2021/05/10 05:06:48;;;;;;;4.47;1.25;;;21.10;56.50;;;;;;2366215;54;20981;-71
2021/05/10 05:09:15;;;;;;;2.25;0.85;;;21.00;56.50;;;;;;2366367;54;20924;-72
2021/05/10 05:11:41;;;;;;;2.10;0.88;;;21.00;56.70;;;;;;2594989;52;21008;-72
2021/05/10 05:14:07;;;;;;;2.05;0.85;;;21.00;56.80;;;;;;2363892;53;20964;-70
2021/05/10 05:16:36;;;;;;;2.25;0.90;;;21.00;56.80;;;;;;2617170;52;20921;-71
2021/05/10 05:19:03;;;;;;;2.47;0.93;;;21.00;56.80;;;;;;2447308;52;21661;-72
2021/05/10 05:21:29;;;;;;;1.62;0.82;;;21.00;56.80;;;;;;2366476;54;21543;-73
2021/05/10 05:23:55;;;;;;;2.17;0.80;;;21.00;56.80;;;;;;2365441;54;20988;-73
2021/05/10 05:26:22;;;;;;;3.65;1.20;;;21.00;56.80;;;;;;2366342;54;20932;-73
2021/05/10 05:28:48;;;;;;;2.65;1.30;;;21.10;56.80;;;;;;2366123;54;20952;-71
2021/05/10 05:31:14;;;;;;;2.53;1.20;;;21.10;57.10;;;;;;2366363;54;22389;-72
2021/05/10 05:33:43;;;;;;;1.77;0.80;;;21.10;57.20;;;;;;2366149;54;21424;-72
2021/05/10 05:36:26;;;;;;;1.58;0.73;;;21.10;57.20;;;;;;2366730;54;20996;-72
2021/05/10 05:38:52;;;;;;;2.58;1.00;;;21.20;57.40;;;;;;2465936;52;21003;-73
2021/05/10 05:41:18;;;;;;;1.98;0.90;;;21.20;57.40;;;;;;2366270;54;20921;-72
2021/05/10 05:43:45;;;;;;;2.60;0.77;;;21.20;57.40;;;;;;2366330;54;20934;-72
2021/05/10 05:46:15;;;;;;;1.95;0.70;;;21.30;57.50;;;;;;2365930;54;21064;-73
2021/05/10 05:48:41;;;;;;;1.95;0.90;;;21.30;57.60;;;;;;2366265;54;20940;-73
2021/05/10 05:51:11;;;;;;;2.80;0.98;;;21.30;57.60;;;;;;2342944;53;20980;-73
2021/05/10 05:53:38;;;;;;;5.65;1.10;;;21.40;57.50;;;;;;2360627;54;20949;-74
2021/05/10 05:56:04;;;;;;;3.80;1.00;;;21.40;57.60;;;;;;2338931;53;21815;-72
2021/05/10 05:58:32;;;;;;;3.80;1.20;;;21.40;57.70;;;;;;2345983;53;20957;-74
2021/05/10 06:01:01;;;;;;;2.47;1.10;;;21.50;57.80;;;;;;2355234;53;21142;-71
2021/05/10 06:03:27;;;;;;;2.47;1.10;;;21.50;57.90;;;;;;2369203;52;20981;-72
2021/05/10 06:05:55;;;;;;;3.37;1.12;;;21.50;58.10;;;;;;2349803;53;20949;-72
2021/05/10 06:08:22;;;;;;;3.30;1.10;;;21.60;58.40;;;;;;2320617;54;20937;-72
2021/05/10 06:10:50;;;;;;;3.42;1.05;;;21.60;58.30;;;;;;2504042;52;20973;-74
2021/05/10 06:13:16;;;;;;;3.10;1.70;;;21.70;58.30;;;;;;2374541;52;20947;-72
2021/05/10 06:15:42;;;;;;;13.52;8.23;;;21.70;58.30;;;;;;2358853;54;21048;-72
2021/05/10 06:18:09;;;;;;;9.20;6.60;;;21.80;58.20;;;;;;2353774;53;20921;-73
2021/05/10 06:20:35;;;;;;;6.35;4.07;;;21.80;58.20;;;;;;2389099;53;20988;-72
2021/05/10 06:23:02;;;;;;;5.03;2.85;;;21.80;58.10;;;;;;2578681;53;21017;-73
2021/05/10 06:25:28;;;;;;;5.28;2.25;;;21.90;58.10;;;;;;2594254;52;20905;-73
2021/05/10 06:27:54;;;;;;;4.22;1.60;;;21.90;58.20;;;;;;2584728;52;21017;-71
2021/05/10 06:30:22;;;;;;;3.35;1.35;;;21.90;58.30;;;;;;2366414;54;21029;-74
2021/05/10 06:32:50;;;;;;;2.15;1.00;;;22.00;58.30;;;;;;2370866;52;20945;-72
2021/05/10 06:35:17;;;;;;;2.62;0.90;;;22.00;58.20;;;;;;2366236;54;20992;-74
2021/05/10 06:37:43;;;;;;;2.97;1.17;;;22.00;58.10;;;;;;2366522;54;21478;-74
2021/05/10 06:40:12;;;;;;;2.10;0.93;;;22.10;58.00;;;;;;2515401;52;20921;-72
2021/05/10 06:42:38;;;;;;;3.05;1.00;;;22.10;57.90;;;;;;2349830;54;21028;-72
2021/05/10 06:45:06;;;;;;;3.20;1.15;;;22.10;57.90;;;;;;2338365;53;21745;-74
2021/05/10 06:47:33;;;;;;;3.00;1.00;;;22.10;57.80;;;;;;2360938;53;21005;-74
2021/05/10 06:50:00;;;;;;;2.75;1.20;;;22.10;57.80;;;;;;2366444;54;20984;-73
2021/05/10 06:52:27;;;;;;;2.42;0.95;;;22.10;58.10;;;;;;2366426;54;20980;-73
2021/05/10 06:54:54;;;;;;;18.90;2.30;;;22.10;58.20;;;;;;2617644;52;20913;-71
2021/05/10 06:57:20;;;;;;;6.93;1.20;;;22.20;58.40;;;;;;2366281;54;20962;-71
2021/05/10 06:59:46;;;;;;;7.97;1.05;;;22.20;58.50;;;;;;2352650;53;20930;-73
2021/05/10 07:02:13;;;;;;;2.20;0.88;;;22.30;58.70;;;;;;2356492;53;21005;-74
2021/05/10 07:04:42;;;;;;;2.20;1.00;;;22.30;58.70;;;;;;2464541;52;21000;-71
2021/05/10 07:07:08;;;;;;;4.32;0.88;;;22.40;58.70;;;;;;2618228;52;20905;-73
2021/05/10 07:09:36;;;;;;;1.87;0.80;;;22.50;58.80;;;;;;2366181;54;20944;-73
2021/05/10 07:12:02;;;;;;;2.08;0.80;;;22.60;58.90;;;;;;2617671;52;20977;-74
2021/05/10 07:14:28;;;;;;;2.00;0.70;;;22.70;59.50;;;;;;2366416;54;20952;-73
2021/05/10 07:16:57;;;;;;;6.82;2.90;;;22.90;59.80;;;;;;2366397;54;20909;-73
2021/05/10 07:19:24;;;;;;;2.72;1.30;;;23.10;59.50;;;;;;2614481;52;21667;-74
2021/05/10 07:21:50;;;;;;;9.40;4.00;;;23.20;59.50;;;;;;2364824;53;20937;-73
2021/05/10 07:24:18;;;;;;;34.97;3.20;;;23.30;59.10;;;;;;2583820;52;20914;-73
2021/05/10 07:26:44;;;;;;;2.75;1.05;;;23.50;58.90;;;;;;2368173;54;20932;-73
2021/05/10 07:29:10;;;;;;;5.32;1.10;;;23.50;58.40;;;;;;2366631;54;20965;-73
2021/05/10 07:31:36;;;;;;;2.25;1.00;;;23.60;58.10;;;;;;2495367;52;21879;-73
2021/05/10 07:34:03;;;;;;;5.25;1.50;;;23.60;57.90;;;;;;2359153;53;20904;-73
2021/05/10 07:36:29;;;;;;;2.70;1.10;;;23.60;57.70;;;;;;2365917;54;20976;-74
2021/05/10 07:38:56;;;;;;;2.28;0.90;;;23.60;57.50;;;;;;2366505;54;20984;-73
2021/05/10 07:41:22;;;;;;;2.80;0.90;;;23.60;57.30;;;;;;2353850;53;20969;-71
2021/05/10 07:43:49;;;;;;;1.98;0.70;;;23.60;57.10;;;;;;2348059;53;21021;-74
2021/05/10 07:46:30;;;;;;;2.40;0.70;;;23.60;56.70;;;;;;2587794;52;20917;-73
2021/05/10 07:48:56;;;;;;;1.95;0.60;;;23.50;55.50;;;;;;2455774;52;20973;-74
2021/05/10 07:51:22;;;;;;;2.08;0.73;;;23.50;56.30;;;;;;2346167;53;21779;-74
2021/05/10 07:53:49;;;;;;;2.00;0.70;;;23.40;56.20;;;;;;2364783;53;21024;-72
2021/05/10 07:56:15;;;;;;;2.62;0.80;;;23.40;56.30;;;;;;2459624;52;20972;-74
2021/05/10 07:58:46;;;;;;;2.20;0.85;;;23.40;56.40;;;;;;2356412;53;20988;-75
2021/05/10 08:01:12;;;;;;;2.22;0.80;;;23.40;56.60;;;;;;2343398;53;20988;-74
2021/05/10 08:03:41;;;;;;;1.40;0.60;;;23.40;57.00;;;;;;2337937;53;20950;-74
2021/05/10 08:06:07;;;;;;;2.20;0.80;;;23.40;57.20;;;;;;2366432;54;20977;-74
2021/05/10 08:08:34;;;;;;;1.95;0.85;;;23.50;57.20;;;;;;2613557;52;20933;-73
2021/05/10 08:11:04;;;;;;;1.75;0.75;;;23.60;57.30;;;;;;2371682;53;20949;-72
2021/05/10 08:13:30;;;;;;;2.20;0.70;;;23.60;56.80;;;;;;2549269;52;21846;-73
2021/05/10 08:15:56;;;;;;;1.30;0.60;;;23.70;57.10;;;;;;2458955;52;20961;-74
2021/05/10 08:18:23;;;;;;;1.73;0.65;;;23.80;57.20;;;;;;2366042;53;20934;-73
2021/05/10 08:20:49;;;;;;;1.65;0.60;;;23.80;57.10;;;;;;2617589;52;21359;-73
2021/05/10 08:23:15;;;;;;;1.73;0.70;;;23.90;57.00;;;;;;2366628;54;21547;-75
2021/05/10 08:25:42;;;;;;;2.05;0.80;;;23.90;56.80;;;;;;2366045;54;20917;-74
2021/05/10 08:28:08;;;;;;;3.60;1.08;;;24.00;56.80;;;;;;2617724;52;20989;-73
2021/05/10 08:30:36;;;;;;;2.95;0.82;;;24.10;57.00;;;;;;2617880;52;20972;-71
2021/05/10 08:33:03;;;;;;;2.33;0.60;;;24.10;56.60;;;;;;2366390;54;20932;-75
2021/05/10 08:35:29;;;;;;;1.17;0.50;;;24.20;56.50;;;;;;2365711;54;21751;-73
2021/05/10 08:37:55;;;;;;;2.10;0.60;;;24.20;56.00;;;;;;2366425;54;20929;-73
2021/05/10 08:40:21;;;;;;;1.17;0.60;;;24.20;55.70;;;;;;2338844;53;21020;-75
2021/05/10 08:42:49;;;;;;;2.10;0.60;;;24.20;55.60;;;;;;2569775;53;20977;-74
2021/05/10 08:45:19;;;;;;;1.15;0.50;;;24.20;55.40;;;;;;2320848;53;20940;-73
2021/05/10 08:47:46;;;;;;;1.42;0.50;;;24.20;54.90;;;;;;2583629;53;20949;-73
2021/05/10 08:50:12;;;;;;;1.37;0.60;;;24.10;55.00;;;;;;2338573;53;20917;-72
2021/05/10 08:52:38;;;;;;;1.40;0.50;;;24.10;54.90;;;;;;2341223;53;20973;-74
2021/05/10 08:55:05;;;;;;;1.60;0.65;;;24.00;54.70;;;;;;2366073;53;20911;-74
2021/05/10 08:57:33;;;;;;;0.90;0.40;;;23.90;54.60;;;;;;2406044;52;21735;-73
2021/05/10 08:59:59;;;;;;;1.40;0.40;;;23.90;54.70;;;;;;2365840;53;20907;-73
2021/05/10 09:02:34;;;;;;;2.58;0.47;;;23.80;54.60;;;;;;2366202;53;20918;-74
2021/05/10 09:05:17;;;;;;;2.47;0.70;;;23.70;54.30;;;;;;2615588;52;21832;-74
2021/05/10 09:07:44;;;;;;;1.02;0.40;;;23.60;54.20;;;;;;2366337;53;21045;-74
2021/05/10 09:10:12;;;;;;;2.60;0.57;;;23.60;54.80;;;;;;2365703;53;21700;-73
2021/05/10 09:12:48;;;;;;;2.17;0.50;;;23.50;54.60;;;;;;2357573;53;20971;-72
2021/05/10 09:15:27;;;;;;;2.55;0.70;;;23.40;53.80;;;;;;2366598;53;20993;-74
2021/05/10 09:18:04;;;;;;;1.45;0.50;;;23.40;53.40;;;;;;2617403;52;20954;-74
2021/05/10 09:20:40;;;;;;;0.60;0.30;;;23.20;53.50;;;;;;2363768;53;20932;-73
2021/05/10 09:23:14;;;;;;;1.73;0.60;;;23.20;53.60;;;;;;2361209;53;21344;-74
2021/05/10 09:25:45;;;;;;;1.20;0.40;;;23.10;54.10;;;;;;2365495;53;20998;-73
2021/05/10 09:28:21;;;;;;;1.83;0.40;;;23.00;53.70;;;;;;2450731;52;21541;-73
2021/05/10 09:30:54;;;;;;;0.32;0.20;;;22.90;53.90;;;;;;2365854;53;20947;-74
2021/05/10 09:33:24;;;;;;;0.30;0.20;;;22.80;53.60;;;;;;2617268;52;21371;-72
2021/05/10 09:35:58;;;;;;;1.20;0.30;;;22.70;53.80;;;;;;2365721;53;21002;-75
2021/05/10 09:38:25;;;;;;;0.73;0.30;;;22.60;53.50;;;;;;2578078;53;20962;-74
2021/05/10 09:40:53;;;;;;;0.68;0.40;;;22.50;53.80;;;;;;2454949;53;20935;-74
2021/05/10 09:43:23;;;;;;;0.73;0.20;;;22.40;53.80;;;;;;2617204;52;20978;-74
2021/05/10 09:46:13;;;;;;;0.17;0.15;;;22.40;53.90;;;;;;2366313;53;21336;-74
2021/05/10 09:48:59;;;;;;;0.50;0.20;;;22.30;53.50;;;;;;2337672;54;20997;-73
2021/05/10 09:51:26;;;;;;;0.65;0.30;;;22.30;54.30;;;;;;2336580;54;20922;-74
2021/05/10 09:53:57;;;;;;;1.17;0.25;;;22.20;54.50;;;;;;2360707;53;21303;-73
2021/05/10 09:56:30;;;;;;;0.80;0.30;;;22.20;54.30;;;;;;2365337;53;21436;-73
2021/05/10 09:59:00;;;;;;;0.60;0.22;;;22.10;54.00;;;;;;2338918;54;21000;-74
2021/05/10 10:01:37;;;;;;;0.20;0.20;;;22.10;54.10;;;;;;2363513;53;20986;-74
2021/05/10 10:04:04;;;;;;;1.05;0.37;;;22.00;53.80;;;;;;2365793;53;20934;-73
2021/05/10 10:06:30;;;;;;;0.90;0.32;;;22.00;54.30;;;;;;2365398;53;20902;-72
2021/05/10 10:08:57;;;;;;;0.20;0.20;;;21.90;54.20;;;;;;2339056;54;20988;-73
2021/05/10 10:11:24;;;;;;;0.60;0.30;;;21.90;54.40;;;;;;2613262;52;20998;-72
2021/05/10 10:13:52;;;;;;;0.88;0.30;;;21.90;54.70;;;;;;2366375;53;20982;-72
2021/05/10 10:16:20;;;;;;;0.55;0.30;;;21.80;54.90;;;;;;2366183;53;20914;-73
2021/05/10 10:18:49;;;;;;;0.43;0.30;;;21.90;55.10;;;;;;2365133;53;20964;-74
2021/05/10 10:21:17;;;;;;;2.37;0.40;;;21.90;55.10;;;;;;2358631;53;20985;-74
2021/05/10 10:23:54;;;;;;;0.62;0.30;;;21.90;55.30;;;;;;2365854;53;20898;-74
2021/05/10 10:26:32;;;;;;;0.50;0.20;;;21.90;55.30;;;;;;2368215;53;21389;-74
2021/05/10 10:29:03;;;;;;;1.10;0.30;;;22.00;55.60;;;;;;2363756;53;21782;-73
2021/05/10 10:31:31;;;;;;;1.25;0.17;;;22.00;55.80;;;;;;2336771;54;22112;-73
2021/05/10 10:34:10;;;;;;;0.77;0.40;;;22.00;55.70;;;;;;2370215;53;20958;-74
2021/05/10 10:36:44;;;;;;;0.55;0.15;;;22.10;55.20;;;;;;2362388;53;20944;-74
2021/05/10 10:39:20;;;;;;;0.50;0.30;;;22.10;55.50;;;;;;2483165;52;20926;-74
2021/05/10 10:41:51;;;;;;;0.43;0.20;;;22.20;55.40;;;;;;2366343;53;21077;-73
2021/05/10 10:44:38;;;;;;;0.70;0.30;;;22.20;55.30;;;;;;2617121;52;20970;-74
2021/05/10 10:47:05;;;;;;;0.35;0.15;;;22.20;55.00;;;;;;2364045;53;20984;-74
2021/05/10 10:49:39;;;;;;;0.77;0.20;;;22.20;55.20;;;;;;2610286;52;20918;-74
2021/05/10 10:52:19;;;;;;;0.32;0.13;;;22.20;54.80;;;;;;2365952;53;20950;-73
2021/05/10 10:54:46;;;;;;;0.77;0.28;;;22.20;54.10;;;;;;2357879;53;21579;-74
2021/05/10 10:57:30;;;;;;;0.50;0.30;;;22.20;54.80;;;;;;2356549;53;20976;-72
2021/05/10 10:59:57;;;;;;;0.82;0.35;;;22.20;54.40;;;;;;2364000;53;20954;-72
2021/05/10 11:02:26;;;;;;;0.80;0.30;;;22.10;55.00;;;;;;2501663;52;20906;-74
2021/05/10 11:05:15;;;;;;;0.35;0.20;;;22.10;54.90;;;;;;2363900;53;21442;-74
2021/05/10 11:08:04;;;;;;;0.55;0.20;;;22.10;54.20;;;;;;2595453;52;21424;-72
2021/05/10 11:14:02;;;;;;;0.28;0.17;;;22.00;54.50;;;;;;2570982;52;20961;-72
2021/05/10 11:16:45;;;;;;;0.30;0.20;;;21.90;54.30;;;;;;2442397;52;21573;-74
2021/05/10 11:19:37;;;;;;;0.80;0.28;;;21.80;54.20;;;;;;2357652;53;20962;-72
2021/05/10 11:22:41;;;;;;;2.17;0.20;;;21.70;54.30;;;;;;2297584;55;21468;-73
2021/05/10 11:25:55;;;;;;;0.22;0.10;;;21.60;54.30;;;;;;2483427;52;20981;-71
2021/05/10 11:28:54;;;;;;;0.60;0.30;;;21.50;54.20;;;;;;2552069;52;20958;-73
2021/05/10 11:31:32;;;;;;;0.62;0.10;;;21.40;54.40;;;;;;2334595;53;20952;-72
2021/05/10 11:34:07;;;;;;;0.20;0.10;;;21.30;55.00;;;;;;2553512;53;20956;-69
2021/05/10 11:36:35;;;;;;;0.40;0.20;;;21.20;55.30;;;;;;2392587;54;21707;-72
2021/05/10 11:39:11;;;;;;;0.30;0.20;;;21.10;55.60;;;;;;2315113;54;20941;-73
2021/05/10 11:41:44;;;;;;;0.10;0.10;;;21.00;55.60;;;;;;2342633;53;20920;-71
2021/05/10 11:44:11;;;;;;;;;;;21.00;56.00;;;;;;2593506;52;20930;-72
2021/05/10 11:46:39;;;;;;;0.22;0.10;;;21.00;55.80;;;;;;2364171;52;20081;-72
2021/05/10 11:49:07;;;;;;;0.35;0.10;;;21.00;56.60;;;;;;2611095;52;20938;-72
2021/05/10 11:51:40;;;;;;;0.15;0.10;;;21.00;56.80;;;;;;2356134;53;21658;-73
2021/05/10 11:54:07;;;;;;;0.73;0.35;;;21.00;56.80;;;;;;2343806;53;20978;-72
2021/05/10 11:56:43;;;;;;;0.22;0.20;;;21.00;57.00;;;;;;2336692;53;22891;-72
2021/05/10 12:00:05;;;;;;;0.25;0.17;;;21.00;57.20;;;;;;2337107;53;21447;-74
2021/05/10 12:02:31;;;;;;;1.12;0.20;;;21.00;57.40;;;;;;2348011;53;21411;-72
2021/05/10 12:05:03;;;;;;;0.10;0.10;;;21.10;57.70;;;;;;2348037;53;20898;-73
2021/05/10 12:07:31;;;;;;;0.40;0.15;;;21.10;57.50;;;;;;2329745;53;20951;-72
2021/05/10 12:10:01;;;;;;;1.00;0.17;;;21.20;57.70;;;;;;2346074;53;20970;-74
2021/05/10 12:13:00;;;;;;;0.32;0.10;;;21.20;57.60;;;;;;2405082;52;20954;-72
2021/05/10 12:15:28;;;;;;;0.20;0.20;;;21.30;56.80;;;;;;2339455;53;20962;-73
2021/05/10 12:18:00;;;;;;;0.20;0.17;;;21.30;57.40;;;;;;2327241;53;21748;-73
2021/05/10 12:20:30;;;;;;;0.10;0.10;;;21.40;57.30;;;;;;2474349;52;21385;-73
2021/05/10 12:22:57;;;;;;;0.37;0.10;;;21.40;57.40;;;;;;2332067;53;21005;-71
2021/05/10 12:25:27;;;;;;;0.60;0.25;;;21.50;57.50;;;;;;2337044;53;22498;-73
2021/05/10 12:28:02;;;;;;;0.43;0.20;;;21.50;57.40;;;;;;2317853;53;21001;-73
2021/05/10 12:30:50;;;;;;;0.50;0.17;;;21.50;57.30;;;;;;2321253;53;21459;-73
2021/05/10 12:33:17;;;;;;;0.30;0.10;;;21.60;57.40;;;;;;2302144;53;21533;-72
2021/05/10 12:36:05;;;;;;;0.10;0.10;;;21.60;57.40;;;;;;2303497;53;22109;-74
2021/05/10 12:38:38;;;;;;;0.95;0.30;;;21.70;56.80;;;;;;2298193;53;21452;-73
2021/05/10 12:41:12;;;;;;;0.10;0.10;;;21.70;57.20;;;;;;2466401;53;21557;-74
2021/05/10 12:43:48;;;;;;;0.50;0.30;;;21.70;57.20;;;;;;2276661;53;20992;-72
2021/05/10 12:46:15;;;;;;;0.50;0.30;;;21.70;56.80;;;;;;2255476;54;22415;-73
2021/05/10 12:48:43;;;;;;;1.00;0.40;;;21.70;57.20;;;;;;2273540;53;21355;-74
2021/05/10 12:51:16;;;;;;;1.10;0.32;;;21.80;57.20;;;;;;2391641;53;20980;-72
2021/05/10 12:53:52;;;;;;;0.55;0.20;;;21.80;57.20;;;;;;2328331;53;21516;-73
2021/05/10 12:56:19;;;;;;;0.85;0.22;;;21.80;57.30;;;;;;2283999;53;21004;-74
2021/05/10 12:58:47;;;;;;;25.70;4.28;;;21.80;57.40;;;;;;2297275;53;21023;-73
2021/05/10 13:01:24;;;;;;;8.30;2.03;;;21.80;57.40;;;;;;2285381;53;21524;-74
2021/05/10 13:04:07;;;;;;;6.72;1.00;;;21.90;57.10;;;;;;2294873;53;20959;-74
2021/05/10 13:06:34;;;;;;;1.67;0.40;;;21.90;56.90;;;;;;2288987;53;22040;-74
2021/05/10 13:09:02;;;;;;;0.65;0.22;;;21.90;57.30;;;;;;2300366;53;20921;-73